sensor_id;sensor_type;location;lat;lon;timestamp;pressure;altitude;pressure_sealevel;temperature;humidity
55550;BME280;41397;49.972;18.944;2023-04-02T00:08:49;100770.02;;;14.54;67.20
55550;BME280;41397;49.972;18.944;2023-04-02T00:11:37;100773.63;;;14.55;67.32
55550;BME280;41397;49.972;18.944;2023-04-02T00:14:45;100774.48;;;14.55;67.37
55550;BME280;41397;49.972;18.944;2023-04-02T00:17:52;100779.99;;;14.55;67.45
55550;BME280;41397;49.972;18.944;2023-04-02T00:24:13;100785.37;;;14.57;67.33
55550;BME280;41397;49.972;18.944;2023-04-02T00:27:16;100785.19;;;14.58;67.28
55550;BME280;41397;49.972;18.944;2023-04-02T00:30:18;100784.46;;;14.56;67.26
55550;BME280;41397;49.972;18.944;2023-04-02T00:33:22;100789.10;;;14.56;67.21
55550;BME280;41397;49.972;18.944;2023-04-02T00:36:25;100790.69;;;14.58;67.17
55550;BME280;41397;49.972;18.944;2023-04-02T00:39:33;100789.83;;;14.58;67.43
55550;BME280;41397;49.972;18.944;2023-04-02T00:42:42;100794.62;;;14.56;67.14
55550;BME280;41397;49.972;18.944;2023-04-02T00:45:46;100790.27;;;14.53;67.03
55550;BME280;41397;49.972;18.944;2023-04-02T00:48:57;100792.27;;;14.51;66.98
55550;BME280;41397;49.972;18.944;2023-04-02T00:55:29;100795.80;;;14.43;67.21
55550;BME280;41397;49.972;18.944;2023-04-02T00:58:33;100793.06;;;14.43;67.09
55550;BME280;41397;49.972;18.944;2023-04-02T01:01:36;100789.88;;;14.38;67.17
55550;BME280;41397;49.972;18.944;2023-04-02T01:08:07;100787.27;;;14.37;67.19
55550;BME280;41397;49.972;18.944;2023-04-02T01:24:13;100807.74;;;14.25;67.88
55550;BME280;41397;49.972;18.944;2023-04-02T01:27:19;100803.82;;;14.27;67.88
55550;BME280;41397;49.972;18.944;2023-04-02T01:30:23;100800.77;;;14.30;67.95
55550;BME280;41397;49.972;18.944;2023-04-02T01:33:29;100804.24;;;14.32;67.88
55550;BME280;41397;49.972;18.944;2023-04-02T01:39:56;100809.59;;;14.34;67.75
55550;BME280;41397;49.972;18.944;2023-04-02T01:49:32;100818.27;;;14.29;68.00
55550;BME280;41397;49.972;18.944;2023-04-02T01:52:38;100812.77;;;14.29;68.15
55550;BME280;41397;49.972;18.944;2023-04-02T01:55:53;100808.16;;;14.30;68.22
55550;BME280;41397;49.972;18.944;2023-04-02T01:58:56;100810.02;;;14.29;68.43
55550;BME280;41397;49.972;18.944;2023-04-02T02:05:16;100820.02;;;14.30;68.76
55550;BME280;41397;49.972;18.944;2023-04-02T02:11:36;100823.77;;;14.29;69.13
55550;BME280;41397;49.972;18.944;2023-04-02T02:14:37;100826.38;;;14.31;69.25
55550;BME280;41397;49.972;18.944;2023-04-02T02:17:39;100829.13;;;14.31;69.30
55550;BME280;41397;49.972;18.944;2023-04-02T02:20:41;100828.28;;;14.30;69.22
55550;BME280;41397;49.972;18.944;2023-04-02T02:23:44;100831.16;;;14.29;69.50
55550;BME280;41397;49.972;18.944;2023-04-02T02:26:47;100826.38;;;14.31;69.42
55550;BME280;41397;49.972;18.944;2023-04-02T02:29:55;100827.25;;;14.31;69.30
55550;BME280;41397;49.972;18.944;2023-04-02T02:33:05;100844.62;;;14.32;69.40
55550;BME280;41397;49.972;18.944;2023-04-02T02:36:21;100838.25;;;14.31;69.24
55550;BME280;41397;49.972;18.944;2023-04-02T02:39:35;100845.34;;;14.34;69.44
55550;BME280;41397;49.972;18.944;2023-04-02T02:42:41;100840.14;;;14.31;69.52
55550;BME280;41397;49.972;18.944;2023-04-02T02:45:48;100846.67;;;14.30;69.47
55550;BME280;41397;49.972;18.944;2023-04-02T02:48:52;100844.78;;;14.30;69.47
55550;BME280;41397;49.972;18.944;2023-04-02T02:52:21;100841.73;;;14.24;69.51
55550;BME280;41397;49.972;18.944;2023-04-02T02:55:13;100846.68;;;14.20;69.75
55550;BME280;41397;49.972;18.944;2023-04-02T02:58:22;100847.58;;;14.11;70.18
55550;BME280;41397;49.972;18.944;2023-04-02T03:01:28;100853.20;;;14.09;70.24
55550;BME280;41397;49.972;18.944;2023-04-02T03:04:32;100856.26;;;14.06;70.49
55550;BME280;41397;49.972;18.944;2023-04-02T03:07:37;100856.13;;;14.08;70.56
55550;BME280;41397;49.972;18.944;2023-04-02T03:10:52;100848.87;;;14.07;70.67
55550;BME280;41397;49.972;18.944;2023-04-02T03:13:57;100865.37;;;14.07;70.87
55550;BME280;41397;49.972;18.944;2023-04-02T03:20:27;100861.63;;;14.08;71.20
55550;BME280;41397;49.972;18.944;2023-04-02T03:23:39;100866.95;;;14.09;70.98
55550;BME280;41397;49.972;18.944;2023-04-02T03:26:51;100866.09;;;14.09;71.31
55550;BME280;41397;49.972;18.944;2023-04-02T03:30:48;100867.98;;;14.08;71.19
55550;BME280;41397;49.972;18.944;2023-04-02T03:33:22;100870.73;;;14.08;71.26
55550;BME280;41397;49.972;18.944;2023-04-02T03:36:36;100871.43;;;14.10;71.24
55550;BME280;41397;49.972;18.944;2023-04-02T03:39:54;100871.43;;;14.10;71.37
55550;BME280;41397;49.972;18.944;2023-04-02T03:49:37;100877.83;;;14.11;71.52
55550;BME280;41397;49.972;18.944;2023-04-02T03:52:41;100887.93;;;14.10;71.33
55550;BME280;41397;49.972;18.944;2023-04-02T03:55:43;100891.41;;;14.12;71.64
55550;BME280;41397;49.972;18.944;2023-04-02T03:58:51;100898.51;;;14.15;71.46
55550;BME280;41397;49.972;18.944;2023-04-02T04:05:20;100897.07;;;14.11;71.41
55550;BME280;41397;49.972;18.944;2023-04-02T04:11:51;100916.32;;;14.11;71.65
55550;BME280;41397;49.972;18.944;2023-04-02T04:15:06;100912.68;;;14.10;71.54
55550;BME280;41397;49.972;18.944;2023-04-02T04:21:25;100916.45;;;14.09;71.64
55550;BME280;41397;49.972;18.944;2023-04-02T04:24:38;100922.12;;;14.08;71.64
55550;BME280;41397;49.972;18.944;2023-04-02T04:30:59;100924.58;;;14.11;71.84
55550;BME280;41397;49.972;18.944;2023-04-02T04:34:13;100932.66;;;14.12;72.02
55550;BME280;41397;49.972;18.944;2023-04-02T04:37:27;100923.67;;;14.10;71.60
55550;BME280;41397;49.972;18.944;2023-04-02T04:40:35;100935.59;;;14.11;71.63
55550;BME280;41397;49.972;18.944;2023-04-02T04:43:49;100925.57;;;14.10;71.80
55550;BME280;41397;49.972;18.944;2023-04-02T04:47:01;100936.56;;;14.10;72.03
55550;BME280;41397;49.972;18.944;2023-04-02T04:50:11;100941.92;;;14.02;71.59
55550;BME280;41397;49.972;18.944;2023-04-02T04:53:20;100945.99;;;13.97;71.72
55550;BME280;41397;49.972;18.944;2023-04-02T04:56:27;100948.58;;;13.99;71.47
55550;BME280;41397;49.972;18.944;2023-04-02T04:59:39;100948.01;;;13.95;71.24
55550;BME280;41397;49.972;18.944;2023-04-02T05:02:47;100951.62;;;13.96;71.72
55550;BME280;41397;49.972;18.944;2023-04-02T05:05:51;100953.64;;;13.84;71.48
55550;BME280;41397;49.972;18.944;2023-04-02T05:09:00;100960.99;;;13.74;71.13
55550;BME280;41397;49.972;18.944;2023-04-02T05:18:45;100968.51;;;13.72;71.40
55550;BME280;41397;49.972;18.944;2023-04-02T05:31:35;100977.04;;;13.69;71.41
55550;BME280;41397;49.972;18.944;2023-04-02T05:34:38;100975.59;;;13.65;71.19
55550;BME280;41397;49.972;18.944;2023-04-02T05:37:41;100973.84;;;13.64;71.62
55550;BME280;41397;49.972;18.944;2023-04-02T05:40:47;100979.79;;;13.69;71.84
55550;BME280;41397;49.972;18.944;2023-04-02T05:43:57;100978.20;;;13.66;71.84
55550;BME280;41397;49.972;18.944;2023-04-02T05:47:06;100979.78;;;13.59;71.40
55550;BME280;41397;49.972;18.944;2023-04-02T05:50:23;100990.16;;;13.55;71.59
55550;BME280;41397;49.972;18.944;2023-04-02T05:53:36;100983.63;;;13.47;71.66
55550;BME280;41397;49.972;18.944;2023-04-02T05:56:40;100993.34;;;13.51;72.09
55550;BME280;41397;49.972;18.944;2023-04-02T05:59:51;100994.50;;;13.48;72.16
55550;BME280;41397;49.972;18.944;2023-04-02T06:03:06;101000.28;;;13.45;72.09
55550;BME280;41397;49.972;18.944;2023-04-02T06:06:16;101008.34;;;13.37;72.27
55550;BME280;41397;49.972;18.944;2023-04-02T06:09:26;100998.78;;;13.31;72.66
55550;BME280;41397;49.972;18.944;2023-04-02T06:12:38;101011.95;;;13.17;72.87
55550;BME280;41397;49.972;18.944;2023-04-02T06:15:42;101009.80;;;13.20;73.31
55550;BME280;41397;49.972;18.944;2023-04-02T06:18:44;101018.87;;;13.11;73.15
55550;BME280;41397;49.972;18.944;2023-04-02T06:21:47;101025.19;;;13.02;73.71
55550;BME280;41397;49.972;18.944;2023-04-02T06:24:58;101035.50;;;13.09;73.63
55550;BME280;41397;49.972;18.944;2023-04-02T06:28:05;101040.56;;;13.14;73.33
55550;BME280;41397;49.972;18.944;2023-04-02T06:32:01;101044.25;;;13.03;73.32
55550;BME280;41397;49.972;18.944;2023-04-02T06:34:22;101052.28;;;13.16;73.71
55550;BME280;41397;49.972;18.944;2023-04-02T06:37:34;101056.16;;;13.14;73.69
55550;BME280;41397;49.972;18.944;2023-04-02T06:40:46;101059.78;;;13.14;73.67
55550;BME280;41397;49.972;18.944;2023-04-02T06:43:59;101072.09;;;13.20;73.64
55550;BME280;41397;49.972;18.944;2023-04-02T06:53:38;101096.56;;;13.02;71.66
55550;BME280;41397;49.972;18.944;2023-04-02T06:56:44;101109.26;;;12.82;71.22
55550;BME280;41397;49.972;18.944;2023-04-02T06:59:47;101117.63;;;12.80;71.17
55550;BME280;41397;49.972;18.944;2023-04-02T07:02:54;101135.03;;;12.70;70.59
55550;BME280;41397;49.972;18.944;2023-04-02T07:05:56;101146.91;;;12.59;69.72
55550;BME280;41397;49.972;18.944;2023-04-02T07:08:59;101149.31;;;12.52;69.34
55550;BME280;41397;49.972;18.944;2023-04-02T07:12:01;101151.69;;;12.46;69.06
55550;BME280;41397;49.972;18.944;2023-04-02T07:15:03;101167.70;;;12.18;68.63
55550;BME280;41397;49.972;18.944;2023-04-02T07:18:04;101167.35;;;12.11;68.19
55550;BME280;41397;49.972;18.944;2023-04-02T07:21:06;101186.52;;;12.00;68.32
55550;BME280;41397;49.972;18.944;2023-04-02T07:24:08;101192.24;;;12.08;68.35
55550;BME280;41397;49.972;18.944;2023-04-02T07:27:10;101207.72;;;12.09;68.41
55550;BME280;41397;49.972;18.944;2023-04-02T07:30:12;101212.09;;;12.01;67.49
55550;BME280;41397;49.972;18.944;2023-04-02T07:33:16;101217.06;;;12.07;67.87
55550;BME280;41397;49.972;18.944;2023-04-02T07:36:20;101230.12;;;11.92;67.53
55550;BME280;41397;49.972;18.944;2023-04-02T07:39:23;101235.81;;;11.77;67.55
55550;BME280;41397;49.972;18.944;2023-04-02T07:42:24;101237.33;;;11.82;67.40
55550;BME280;41397;49.972;18.944;2023-04-02T07:45:26;101249.77;;;11.74;67.57
55550;BME280;41397;49.972;18.944;2023-04-02T07:48:27;101253.52;;;11.85;67.95
55550;BME280;41397;49.972;18.944;2023-04-02T07:51:29;101263.26;;;11.89;67.88
55550;BME280;41397;49.972;18.944;2023-04-02T07:54:30;101265.34;;;11.74;67.65
55550;BME280;41397;49.972;18.944;2023-04-02T07:57:32;101280.12;;;11.60;67.81
55550;BME280;41397;49.972;18.944;2023-04-02T08:00:33;101275.62;;;11.59;68.01
55550;BME280;41397;49.972;18.944;2023-04-02T08:03:36;101292.33;;;11.67;68.08
55550;BME280;41397;49.972;18.944;2023-04-02T08:06:38;101296.09;;;11.77;68.48
55550;BME280;41397;49.972;18.944;2023-04-02T08:09:39;101309.30;;;11.84;68.65
55550;BME280;41397;49.972;18.944;2023-04-02T08:12:41;101308.13;;;11.88;68.50
55550;BME280;41397;49.972;18.944;2023-04-02T08:15:43;101318.21;;;11.87;67.57
55550;BME280;41397;49.972;18.944;2023-04-02T08:18:44;101330.80;;;11.90;67.31
55550;BME280;41397;49.972;18.944;2023-04-02T08:21:48;101330.60;;;11.80;67.26
55550;BME280;41397;49.972;18.944;2023-04-02T08:24:52;101339.58;;;11.82;67.00
55550;BME280;41397;49.972;18.944;2023-04-02T08:27:53;101342.81;;;11.76;66.71
55550;BME280;41397;49.972;18.944;2023-04-02T08:30:54;101344.38;;;11.67;66.75
55550;BME280;41397;49.972;18.944;2023-04-02T08:33:56;101351.73;;;11.67;67.00
55550;BME280;41397;49.972;18.944;2023-04-02T08:36:58;101360.25;;;11.51;66.41
55550;BME280;41397;49.972;18.944;2023-04-02T08:40:02;101361.64;;;11.56;66.13
55550;BME280;41397;49.972;18.944;2023-04-02T08:43:19;101367.49;;;11.52;66.01
55550;BME280;41397;49.972;18.944;2023-04-02T08:46:25;101379.66;;;11.48;65.71
55550;BME280;41397;49.972;18.944;2023-04-02T08:49:40;101385.56;;;11.54;66.38
55550;BME280;41397;49.972;18.944;2023-04-02T08:52:42;101393.59;;;11.45;65.75
55550;BME280;41397;49.972;18.944;2023-04-02T09:05:32;101422.75;;;11.46;63.89
55550;BME280;41397;49.972;18.944;2023-04-02T09:08:35;101427.33;;;11.45;64.08
55550;BME280;41397;49.972;18.944;2023-04-02T09:11:51;101440.29;;;11.43;64.18
55550;BME280;41397;49.972;18.944;2023-04-02T09:18:12;101449.95;;;11.36;64.03
55550;BME280;41397;49.972;18.944;2023-04-02T09:24:28;101456.42;;;11.35;63.75
55550;BME280;41397;49.972;18.944;2023-04-02T09:27:34;101474.19;;;11.29;63.78
55550;BME280;41397;49.972;18.944;2023-04-02T09:30:48;101482.17;;;11.32;63.95
55550;BME280;41397;49.972;18.944;2023-04-02T09:33:49;101480.52;;;11.30;63.60
55550;BME280;41397;49.972;18.944;2023-04-02T09:36:53;101493.98;;;11.33;63.57
55550;BME280;41397;49.972;18.944;2023-04-02T09:43:17;101497.52;;;11.22;63.56
55550;BME280;41397;49.972;18.944;2023-04-02T09:46:23;101512.20;;;11.21;63.89
55550;BME280;41397;49.972;18.944;2023-04-02T09:49:33;101521.39;;;11.20;63.67
55550;BME280;41397;49.972;18.944;2023-04-02T09:52:35;101524.77;;;11.24;63.66
55550;BME280;41397;49.972;18.944;2023-04-02T09:55:37;101530.14;;;11.25;63.79
55550;BME280;41397;49.972;18.944;2023-04-02T09:58:39;101530.92;;;11.02;62.86
55550;BME280;41397;49.972;18.944;2023-04-02T10:04:53;101542.01;;;11.13;64.31
55550;BME280;41397;49.972;18.944;2023-04-02T10:14:24;101544.06;;;11.22;64.51
55550;BME280;41397;49.972;18.944;2023-04-02T10:17:30;101555.79;;;11.24;64.30
55550;BME280;41397;49.972;18.944;2023-04-02T10:20:34;101560.16;;;11.27;64.43
55550;BME280;41397;49.972;18.944;2023-04-02T10:23:39;101568.48;;;11.25;64.60
55550;BME280;41397;49.972;18.944;2023-04-02T10:33:16;101578.13;;;11.05;64.83
55550;BME280;41397;49.972;18.944;2023-04-02T10:37:11;101578.55;;;11.12;65.20
55550;BME280;41397;49.972;18.944;2023-04-02T10:39:44;101585.99;;;11.10;64.52
55550;BME280;41397;49.972;18.944;2023-04-02T10:46:19;101602.66;;;10.94;64.65
55550;BME280;41397;49.972;18.944;2023-04-02T10:49:44;101598.59;;;10.87;64.28
55550;BME280;41397;49.972;18.944;2023-04-02T10:56:08;101602.19;;;10.87;64.14
55550;BME280;41397;49.972;18.944;2023-04-02T10:59:17;101607.45;;;10.91;64.53
55550;BME280;41397;49.972;18.944;2023-04-02T11:02:27;101609.63;;;10.73;64.31
55550;BME280;41397;49.972;18.944;2023-04-02T11:05:41;101610.93;;;10.80;64.88
55550;BME280;41397;49.972;18.944;2023-04-02T11:08:49;101614.97;;;10.74;64.54
55550;BME280;41397;49.972;18.944;2023-04-02T11:11:55;101617.08;;;10.83;65.19
55550;BME280;41397;49.972;18.944;2023-04-02T11:14:58;101624.39;;;10.83;64.41
55550;BME280;41397;49.972;18.944;2023-04-02T11:18:00;101632.20;;;10.89;64.28
55550;BME280;41397;49.972;18.944;2023-04-02T11:21:05;101633.72;;;10.93;64.74
55550;BME280;41397;49.972;18.944;2023-04-02T11:27:25;101636.93;;;11.00;64.08
55550;BME280;41397;49.972;18.944;2023-04-02T11:30:29;101629.59;;;11.00;64.88
55550;BME280;41397;49.972;18.944;2023-04-02T11:39:58;101651.45;;;10.87;64.74
55550;BME280;41397;49.972;18.944;2023-04-02T11:43:54;101659.35;;;10.92;64.90
55550;BME280;41397;49.972;18.944;2023-04-02T11:59:27;101674.24;;;10.61;63.54
55550;BME280;41397;49.972;18.944;2023-04-02T12:05:54;101686.82;;;10.63;64.58
55550;BME280;41397;49.972;18.944;2023-04-02T12:15:39;101683.79;;;10.68;63.72
55550;BME280;41397;49.972;18.944;2023-04-02T12:18:44;101687.16;;;10.59;63.91
55550;BME280;41397;49.972;18.944;2023-04-02T12:21:47;101694.16;;;10.63;64.00
55550;BME280;41397;49.972;18.944;2023-04-02T12:24:49;101697.27;;;10.71;64.05
55550;BME280;41397;49.972;18.944;2023-04-02T12:31:14;101710.06;;;10.71;63.87
55550;BME280;41397;49.972;18.944;2023-04-02T12:34:20;101702.43;;;10.76;64.04
55550;BME280;41397;49.972;18.944;2023-04-02T12:37:25;101706.67;;;10.67;63.61
55550;BME280;41397;49.972;18.944;2023-04-02T12:40:27;101710.51;;;10.77;63.98
55550;BME280;41397;49.972;18.944;2023-04-02T12:43:35;101711.59;;;10.75;63.05
55550;BME280;41397;49.972;18.944;2023-04-02T12:46:40;101708.55;;;10.79;63.31
55550;BME280;41397;49.972;18.944;2023-04-02T12:49:43;101703.75;;;10.83;63.22
55550;BME280;41397;49.972;18.944;2023-04-02T12:52:48;101712.85;;;10.83;63.28
55550;BME280;41397;49.972;18.944;2023-04-02T12:55:54;101727.71;;;10.79;62.99
55550;BME280;41397;49.972;18.944;2023-04-02T12:58:58;101734.91;;;10.68;63.41
55550;BME280;41397;49.972;18.944;2023-04-02T13:02:13;101724.62;;;10.71;62.72
55550;BME280;41397;49.972;18.944;2023-04-02T13:05:09;101729.58;;;10.79;62.97
55550;BME280;41397;49.972;18.944;2023-04-02T13:08:18;101743.47;;;10.76;63.26
55550;BME280;41397;49.972;18.944;2023-04-02T13:11:22;101749.52;;;10.81;62.83
55550;BME280;41397;49.972;18.944;2023-04-02T13:14:29;101756.43;;;10.86;63.32
55550;BME280;41397;49.972;18.944;2023-04-02T13:17:41;101748.43;;;10.83;63.00
55550;BME280;41397;49.972;18.944;2023-04-02T13:23:57;101747.13;;;10.89;62.68
55550;BME280;41397;49.972;18.944;2023-04-02T13:27:00;101749.18;;;10.85;62.18
55550;BME280;41397;49.972;18.944;2023-04-02T13:30:12;101760.04;;;10.87;62.32
55550;BME280;41397;49.972;18.944;2023-04-02T13:33:16;101760.60;;;10.92;61.87
55550;BME280;41397;49.972;18.944;2023-04-02T13:36:18;101753.70;;;10.86;61.58
55550;BME280;41397;49.972;18.944;2023-04-02T13:39:20;101762.86;;;10.85;62.01
55550;BME280;41397;49.972;18.944;2023-04-02T13:42:21;101765.57;;;10.73;61.81
55550;BME280;41397;49.972;18.944;2023-04-02T13:45:31;101770.83;;;10.76;62.33
55550;BME280;41397;49.972;18.944;2023-04-02T13:48:33;101775.06;;;10.67;62.19
55550;BME280;41397;49.972;18.944;2023-04-02T13:51:59;101787.91;;;10.79;62.53
55550;BME280;41397;49.972;18.944;2023-04-02T13:54:53;101783.22;;;10.81;62.07
55550;BME280;41397;49.972;18.944;2023-04-02T13:58:01;101786.40;;;10.88;61.89
55550;BME280;41397;49.972;18.944;2023-04-02T14:01:07;101794.95;;;10.83;62.18
55550;BME280;41397;49.972;18.944;2023-04-02T14:04:15;101797.69;;;10.83;61.80
55550;BME280;41397;49.972;18.944;2023-04-02T14:39:51;101835.88;;;10.85;60.85
55550;BME280;41397;49.972;18.944;2023-04-02T14:46:08;101840.06;;;10.91;60.79
55550;BME280;41397;49.972;18.944;2023-04-02T14:49:24;101847.70;;;10.85;60.50
55550;BME280;41397;49.972;18.944;2023-04-02T14:52:30;101843.13;;;10.86;60.30
55550;BME280;41397;49.972;18.944;2023-04-02T14:55:40;101851.42;;;10.84;60.64
55550;BME280;41397;49.972;18.944;2023-04-02T14:58:49;101849.68;;;10.83;60.75
55550;BME280;41397;49.972;18.944;2023-04-02T15:01:58;101848.90;;;10.81;60.61
55550;BME280;41397;49.972;18.944;2023-04-02T15:08:26;101856.60;;;10.75;60.60
55550;BME280;41397;49.972;18.944;2023-04-02T15:11:35;101867.55;;;10.75;60.50
55550;BME280;41397;49.972;18.944;2023-04-02T15:14:44;101863.48;;;10.68;60.47
55550;BME280;41397;49.972;18.944;2023-04-02T15:17:46;101880.37;;;10.74;60.46
55550;BME280;41397;49.972;18.944;2023-04-02T15:24:21;101886.14;;;10.55;60.05
55550;BME280;41397;49.972;18.944;2023-04-02T15:30:43;101894.46;;;10.54;60.28
55550;BME280;41397;49.972;18.944;2023-04-02T15:34:01;101903.26;;;10.59;60.96
55550;BME280;41397;49.972;18.944;2023-04-02T15:37:06;101904.80;;;10.63;60.18
55550;BME280;41397;49.972;18.944;2023-04-02T15:43:36;101910.95;;;10.66;59.99
55550;BME280;41397;49.972;18.944;2023-04-02T15:56:25;101930.10;;;10.52;59.54
55550;BME280;41397;49.972;18.944;2023-04-02T16:12:41;101943.90;;;10.51;58.94
55550;BME280;41397;49.972;18.944;2023-04-02T16:15:54;101946.32;;;10.55;59.44
55550;BME280;41397;49.972;18.944;2023-04-02T16:19:08;101952.70;;;10.56;59.31
55550;BME280;41397;49.972;18.944;2023-04-02T16:25:26;101959.80;;;10.44;59.18
55550;BME280;41397;49.972;18.944;2023-04-02T16:28:39;101967.80;;;10.47;59.06
55550;BME280;41397;49.972;18.944;2023-04-02T16:42:45;101980.33;;;10.51;58.86
55550;BME280;41397;49.972;18.944;2023-04-02T16:49:17;101993.41;;;10.46;59.02
55550;BME280;41397;49.972;18.944;2023-04-02T16:52:28;101988.69;;;10.34;59.29
55550;BME280;41397;49.972;18.944;2023-04-02T16:55:44;101988.41;;;10.38;59.14
55550;BME280;41397;49.972;18.944;2023-04-02T17:08:39;102010.06;;;10.27;58.52
55550;BME280;41397;49.972;18.944;2023-04-02T17:11:50;102014.63;;;10.27;58.80
55550;BME280;41397;49.972;18.944;2023-04-02T17:15:03;102015.89;;;10.21;58.47
55550;BME280;41397;49.972;18.944;2023-04-02T17:18:17;102019.87;;;10.15;58.54
55550;BME280;41397;49.972;18.944;2023-04-02T17:21:25;102025.84;;;10.22;58.57
55550;BME280;41397;49.972;18.944;2023-04-02T17:27:44;102038.70;;;10.20;58.33
55550;BME280;41397;49.972;18.944;2023-04-02T17:30:51;102035.10;;;10.19;58.36
55550;BME280;41397;49.972;18.944;2023-04-02T17:33:55;102038.63;;;10.21;58.39
55550;BME280;41397;49.972;18.944;2023-04-02T17:37:14;102051.69;;;10.16;58.01
55550;BME280;41397;49.972;18.944;2023-04-02T17:40:28;102049.07;;;10.15;58.50
55550;BME280;41397;49.972;18.944;2023-04-02T17:53:22;102054.56;;;9.99;60.35
55550;BME280;41397;49.972;18.944;2023-04-02T17:57:23;102065.91;;;10.07;60.23
55550;BME280;41397;49.972;18.944;2023-04-02T18:00:34;102068.54;;;10.09;60.33
55550;BME280;41397;49.972;18.944;2023-04-02T18:03:13;102072.89;;;9.97;60.77
55550;BME280;41397;49.972;18.944;2023-04-02T18:06:20;102070.85;;;10.00;60.81
55550;BME280;41397;49.972;18.944;2023-04-02T18:09:38;102081.97;;;9.97;60.36
55550;BME280;41397;49.972;18.944;2023-04-02T18:25:54;102098.36;;;9.82;61.40
55550;BME280;41397;49.972;18.944;2023-04-02T18:29:13;102103.50;;;9.88;61.54
55550;BME280;41397;49.972;18.944;2023-04-02T18:35:38;102101.72;;;9.87;61.51
55550;BME280;41397;49.972;18.944;2023-04-02T18:45:17;102113.63;;;9.86;61.25
55550;BME280;41397;49.972;18.944;2023-04-02T18:51:37;102119.09;;;9.86;61.13
55550;BME280;41397;49.972;18.944;2023-04-02T18:54:51;102126.59;;;9.82;61.51
55550;BME280;41397;49.972;18.944;2023-04-02T18:58:09;102129.66;;;9.76;61.59
55550;BME280;41397;49.972;18.944;2023-04-02T19:01:16;102124.01;;;9.79;61.57
55550;BME280;41397;49.972;18.944;2023-04-02T19:04:26;102132.32;;;9.77;61.35
55550;BME280;41397;49.972;18.944;2023-04-02T19:07:34;102131.61;;;9.74;61.44
55550;BME280;41397;49.972;18.944;2023-04-02T19:10:42;102129.13;;;9.69;61.27
55550;BME280;41397;49.972;18.944;2023-04-02T19:13:45;102129.84;;;9.73;61.38
55550;BME280;41397;49.972;18.944;2023-04-02T19:17:01;102135.30;;;9.73;61.27
55550;BME280;41397;49.972;18.944;2023-04-02T19:20:20;102130.64;;;9.75;61.45
55550;BME280;41397;49.972;18.944;2023-04-02T19:26:45;102140.41;;;9.79;61.10
55550;BME280;41397;49.972;18.944;2023-04-02T19:46:20;102150.39;;;9.80;61.32
55550;BME280;41397;49.972;18.944;2023-04-02T19:49:28;102157.60;;;9.81;61.43
55550;BME280;41397;49.972;18.944;2023-04-02T19:52:32;102167.83;;;9.77;61.78
55550;BME280;41397;49.972;18.944;2023-04-02T19:55:42;102164.84;;;9.82;61.67
55550;BME280;41397;49.972;18.944;2023-04-02T19:58:44;102164.05;;;9.80;61.19
55550;BME280;41397;49.972;18.944;2023-04-02T20:05:07;102161.13;;;9.83;61.40
55550;BME280;41397;49.972;18.944;2023-04-02T20:08:09;102174.69;;;9.85;61.20
55550;BME280;41397;49.972;18.944;2023-04-02T20:11:17;102175.22;;;9.75;61.24
55550;BME280;41397;49.972;18.944;2023-04-02T20:14:18;102174.88;;;9.82;61.35
55550;BME280;41397;49.972;18.944;2023-04-02T20:17:20;102168.63;;;9.80;60.96
55550;BME280;41397;49.972;18.944;2023-04-02T20:20:21;102165.80;;;9.81;60.99
55550;BME280;41397;49.972;18.944;2023-04-02T20:23:25;102177.61;;;9.82;61.07
55550;BME280;41397;49.972;18.944;2023-04-02T20:26:26;102171.96;;;9.85;60.97
55550;BME280;41397;49.972;18.944;2023-04-02T20:29:29;102172.06;;;9.83;61.43
55550;BME280;41397;49.972;18.944;2023-04-02T20:32:33;102176.66;;;9.83;60.95
55550;BME280;41397;49.972;18.944;2023-04-02T20:35:35;102182.44;;;9.76;61.12
55550;BME280;41397;49.972;18.944;2023-04-02T20:38:37;102184.40;;;9.74;61.19
55550;BME280;41397;49.972;18.944;2023-04-02T20:41:39;102179.81;;;9.75;61.27
55550;BME280;41397;49.972;18.944;2023-04-02T20:44:41;102186.40;;;9.71;61.06
55550;BME280;41397;49.972;18.944;2023-04-02T20:47:42;102186.50;;;9.69;61.25
55550;BME280;41397;49.972;18.944;2023-04-02T20:50:43;102194.69;;;9.69;60.95
55550;BME280;41397;49.972;18.944;2023-04-02T20:53:47;102189.30;;;9.68;61.16
55550;BME280;41397;49.972;18.944;2023-04-02T20:56:49;102194.31;;;9.60;61.45
55550;BME280;41397;49.972;18.944;2023-04-02T20:59:51;102197.14;;;9.58;61.61
55550;BME280;41397;49.972;18.944;2023-04-02T21:02:54;102197.22;;;9.56;61.48
55550;BME280;41397;49.972;18.944;2023-04-02T21:05:57;102199.15;;;9.54;61.82
55550;BME280;41397;49.972;18.944;2023-04-02T21:09:00;102196.86;;;9.47;61.92
55550;BME280;41397;49.972;18.944;2023-04-02T21:12:03;102205.82;;;9.49;61.97
55550;BME280;41397;49.972;18.944;2023-04-02T21:15:05;102205.59;;;9.53;62.12
55550;BME280;41397;49.972;18.944;2023-04-02T21:18:06;102195.64;;;9.52;61.96
55550;BME280;41397;49.972;18.944;2023-04-02T21:21:10;102201.98;;;9.53;61.90
55550;BME280;41397;49.972;18.944;2023-04-02T21:24:13;102202.91;;;9.52;61.84
55550;BME280;41397;49.972;18.944;2023-04-02T21:27:15;102207.34;;;9.54;61.71
55550;BME280;41397;49.972;18.944;2023-04-02T21:30:17;102199.24;;;9.53;61.78
55550;BME280;41397;49.972;18.944;2023-04-02T21:33:18;102202.86;;;9.53;61.51
55550;BME280;41397;49.972;18.944;2023-04-02T21:36:26;102211.12;;;9.52;61.59
55550;BME280;41397;49.972;18.944;2023-04-02T21:39:31;102218.84;;;9.44;61.58
55550;BME280;41397;49.972;18.944;2023-04-02T21:42:34;102213.31;;;9.45;61.95